sensor_id;sensor_type;location;lat;lon;timestamp;P1;durP1;ratioP1;P2;durP2;ratioP2
18867;SDS011;9563;49.240;9.088;2022-08-05T00:02:21;2.40;;;1.77;;
18867;SDS011;9563;49.240;9.088;2022-08-05T00:04:48;3.63;;;1.75;;
18867;SDS011;9563;49.240;9.088;2022-08-05T00:13:33;6.97;;;2.25;;
18867;SDS011;9563;49.240;9.088;2022-08-05T00:16:02;4.15;;;1.58;;
18867;SDS011;9563;49.240;9.088;2022-08-05T00:18:29;2.22;;;1.90;;
18867;SDS011;9563;49.240;9.088;2022-08-05T00:20:56;4.88;;;2.58;;
18867;SDS011;9563;49.240;9.088;2022-08-05T00:23:25;2.42;;;1.92;;
18867;SDS011;9563;49.240;9.088;2022-08-05T00:25:52;2.63;;;2.20;;
18867;SDS011;9563;49.240;9.088;2022-08-05T00:28:19;3.10;;;1.95;;
18867;SDS011;9563;49.240;9.088;2022-08-05T00:30:46;3.15;;;2.03;;
18867;SDS011;9563;49.240;9.088;2022-08-05T00:33:14;4.13;;;2.17;;
18867;SDS011;9563;49.240;9.088;2022-08-05T00:35:41;3.35;;;1.88;;
18867;SDS011;9563;49.240;9.088;2022-08-05T00:38:08;3.53;;;1.80;;
18867;SDS011;9563;49.240;9.088;2022-08-05T00:40:46;2.40;;;1.70;;
18867;SDS011;9563;49.240;9.088;2022-08-05T00:43:14;2.60;;;2.08;;
18867;SDS011;9563;49.240;9.088;2022-08-05T00:45:41;7.40;;;2.30;;
18867;SDS011;9563;49.240;9.088;2022-08-05T00:48:09;2.83;;;2.10;;
18867;SDS011;9563;49.240;9.088;2022-08-05T00:50:37;7.20;;;1.98;;
18867;SDS011;9563;49.240;9.088;2022-08-05T00:53:05;4.35;;;2.05;;
18867;SDS011;9563;49.240;9.088;2022-08-05T00:55:33;10.13;;;2.22;;
18867;SDS011;9563;49.240;9.088;2022-08-05T00:58:01;4.63;;;2.03;;
18867;SDS011;9563;49.240;9.088;2022-08-05T01:00:29;9.43;;;2.10;;
18867;SDS011;9563;49.240;9.088;2022-08-05T01:02:56;6.25;;;2.10;;
18867;SDS011;9563;49.240;9.088;2022-08-05T01:05:24;11.20;;;2.60;;
18867;SDS011;9563;49.240;9.088;2022-08-05T01:07:52;5.30;;;2.40;;
18867;SDS011;9563;49.240;9.088;2022-08-05T01:10:19;5.32;;;2.28;;
18867;SDS011;9563;49.240;9.088;2022-08-05T01:12:54;3.90;;;2.42;;
18867;SDS011;9563;49.240;9.088;2022-08-05T01:15:30;11.65;;;2.67;;
18867;SDS011;9563;49.240;9.088;2022-08-05T01:18:00;6.30;;;2.30;;
18867;SDS011;9563;49.240;9.088;2022-08-05T01:20:30;6.68;;;2.10;;
18867;SDS011;9563;49.240;9.088;2022-08-05T01:23:12;9.35;;;2.05;;
18867;SDS011;9563;49.240;9.088;2022-08-05T01:25:56;7.65;;;2.20;;
18867;SDS011;9563;49.240;9.088;2022-08-05T01:28:36;7.97;;;2.50;;
18867;SDS011;9563;49.240;9.088;2022-08-05T01:31:09;10.65;;;2.58;;
18867;SDS011;9563;49.240;9.088;2022-08-05T01:33:53;6.25;;;2.22;;
18867;SDS011;9563;49.240;9.088;2022-08-05T01:36:25;11.32;;;2.95;;
18867;SDS011;9563;49.240;9.088;2022-08-05T01:38:56;8.35;;;2.72;;
18867;SDS011;9563;49.240;9.088;2022-08-05T01:41:24;7.15;;;2.30;;
18867;SDS011;9563;49.240;9.088;2022-08-05T01:43:57;4.68;;;2.40;;
18867;SDS011;9563;49.240;9.088;2022-08-05T01:46:25;9.48;;;2.40;;
18867;SDS011;9563;49.240;9.088;2022-08-05T01:48:54;6.25;;;2.80;;
18867;SDS011;9563;49.240;9.088;2022-08-05T01:51:23;4.72;;;2.33;;
18867;SDS011;9563;49.240;9.088;2022-08-05T01:53:51;10.35;;;2.85;;
18867;SDS011;9563;49.240;9.088;2022-08-05T01:56:21;6.57;;;3.03;;
18867;SDS011;9563;49.240;9.088;2022-08-05T01:58:49;7.07;;;2.45;;
18867;SDS011;9563;49.240;9.088;2022-08-05T02:01:21;9.80;;;2.95;;
18867;SDS011;9563;49.240;9.088;2022-08-05T02:03:51;11.85;;;2.92;;
18867;SDS011;9563;49.240;9.088;2022-08-05T02:06:20;12.68;;;2.85;;
18867;SDS011;9563;49.240;9.088;2022-08-05T02:08:47;7.47;;;2.63;;
18867;SDS011;9563;49.240;9.088;2022-08-05T02:11:15;11.30;;;3.15;;
18867;SDS011;9563;49.240;9.088;2022-08-05T02:13:44;7.65;;;2.97;;
18867;SDS011;9563;49.240;9.088;2022-08-05T02:16:18;5.65;;;2.53;;
18867;SDS011;9563;49.240;9.088;2022-08-05T02:18:51;6.80;;;2.15;;
18867;SDS011;9563;49.240;9.088;2022-08-05T02:21:21;4.60;;;2.13;;
18867;SDS011;9563;49.240;9.088;2022-08-05T02:23:53;8.77;;;2.28;;
18867;SDS011;9563;49.240;9.088;2022-08-05T02:26:22;4.30;;;2.60;;
18867;SDS011;9563;49.240;9.088;2022-08-05T02:28:52;4.63;;;2.70;;
18867;SDS011;9563;49.240;9.088;2022-08-05T02:31:26;7.63;;;2.45;;
18867;SDS011;9563;49.240;9.088;2022-08-05T02:33:56;9.50;;;2.85;;
18867;SDS011;9563;49.240;9.088;2022-08-05T02:36:26;4.35;;;2.20;;
18867;SDS011;9563;49.240;9.088;2022-08-05T02:41:56;5.35;;;2.95;;
18867;SDS011;9563;49.240;9.088;2022-08-05T02:44:53;11.43;;;3.05;;
18867;SDS011;9563;49.240;9.088;2022-08-05T02:50:58;4.80;;;2.50;;
18867;SDS011;9563;49.240;9.088;2022-08-05T02:53:26;6.10;;;2.50;;
18867;SDS011;9563;49.240;9.088;2022-08-05T02:55:55;8.85;;;2.45;;
18867;SDS011;9563;49.240;9.088;2022-08-05T02:58:24;6.10;;;2.20;;
18867;SDS011;9563;49.240;9.088;2022-08-05T03:00:52;3.25;;;2.20;;
18867;SDS011;9563;49.240;9.088;2022-08-05T03:03:22;4.65;;;2.25;;
18867;SDS011;9563;49.240;9.088;2022-08-05T03:05:51;6.05;;;2.42;;
18867;SDS011;9563;49.240;9.088;2022-08-05T03:08:19;5.97;;;2.33;;
18867;SDS011;9563;49.240;9.088;2022-08-05T03:10:48;5.18;;;2.78;;
18867;SDS011;9563;49.240;9.088;2022-08-05T03:13:16;7.38;;;2.42;;
18867;SDS011;9563;49.240;9.088;2022-08-05T03:15:44;5.82;;;2.28;;
18867;SDS011;9563;49.240;9.088;2022-08-05T03:18:13;5.07;;;2.45;;
18867;SDS011;9563;49.240;9.088;2022-08-05T03:20:42;6.22;;;2.90;;
18867;SDS011;9563;49.240;9.088;2022-08-05T03:23:10;6.47;;;2.60;;
18867;SDS011;9563;49.240;9.088;2022-08-05T03:25:39;5.30;;;2.22;;
18867;SDS011;9563;49.240;9.088;2022-08-05T03:28:07;4.93;;;2.58;;
18867;SDS011;9563;49.240;9.088;2022-08-05T03:30:36;5.28;;;2.22;;
18867;SDS011;9563;49.240;9.088;2022-08-05T03:33:04;3.85;;;2.05;;
18867;SDS011;9563;49.240;9.088;2022-08-05T03:35:32;8.95;;;2.45;;
18867;SDS011;9563;49.240;9.088;2022-08-05T03:38:01;4.35;;;2.50;;
18867;SDS011;9563;49.240;9.088;2022-08-05T03:40:29;4.60;;;2.38;;
18867;SDS011;9563;49.240;9.088;2022-08-05T03:42:56;5.10;;;2.40;;
18867;SDS011;9563;49.240;9.088;2022-08-05T03:45:22;6.90;;;2.50;;
18867;SDS011;9563;49.240;9.088;2022-08-05T03:48:23;7.22;;;2.75;;
18867;SDS011;9563;49.240;9.088;2022-08-05T03:51:18;5.13;;;2.42;;
18867;SDS011;9563;49.240;9.088;2022-08-05T03:54:02;5.78;;;2.42;;
18867;SDS011;9563;49.240;9.088;2022-08-05T03:57:12;6.13;;;2.40;;
18867;SDS011;9563;49.240;9.088;2022-08-05T04:02:50;12.18;;;2.90;;
18867;SDS011;9563;49.240;9.088;2022-08-05T04:05:42;5.97;;;2.58;;
18867;SDS011;9563;49.240;9.088;2022-08-05T04:08:41;5.82;;;2.90;;
18867;SDS011;9563;49.240;9.088;2022-08-05T04:11:50;7.68;;;2.65;;
18867;SDS011;9563;49.240;9.088;2022-08-05T04:14:17;18.88;;;3.60;;
18867;SDS011;9563;49.240;9.088;2022-08-05T04:16:44;10.20;;;2.80;;
18867;SDS011;9563;49.240;9.088;2022-08-05T04:22:34;8.05;;;3.60;;
18867;SDS011;9563;49.240;9.088;2022-08-05T04:25:02;5.22;;;2.83;;
18867;SDS011;9563;49.240;9.088;2022-08-05T04:27:32;4.90;;;2.75;;
18867;SDS011;9563;49.240;9.088;2022-08-05T04:30:00;7.13;;;2.67;;
18867;SDS011;9563;49.240;9.088;2022-08-05T04:32:27;9.55;;;3.40;;
18867;SDS011;9563;49.240;9.088;2022-08-05T04:41:06;6.25;;;3.25;;
18867;SDS011;9563;49.240;9.088;2022-08-05T04:46:48;6.85;;;3.25;;
18867;SDS011;9563;49.240;9.088;2022-08-05T04:49:16;6.13;;;2.75;;
18867;SDS011;9563;49.240;9.088;2022-08-05T04:51:43;10.15;;;3.80;;
18867;SDS011;9563;49.240;9.088;2022-08-05T04:54:10;5.72;;;3.55;;
18867;SDS011;9563;49.240;9.088;2022-08-05T04:56:38;9.30;;;3.78;;
18867;SDS011;9563;49.240;9.088;2022-08-05T04:59:06;8.15;;;3.92;;
18867;SDS011;9563;49.240;9.088;2022-08-05T05:01:34;7.65;;;3.70;;
18867;SDS011;9563;49.240;9.088;2022-08-05T05:04:05;4.93;;;3.22;;
18867;SDS011;9563;49.240;9.088;2022-08-05T05:06:33;5.03;;;3.47;;
18867;SDS011;9563;49.240;9.088;2022-08-05T05:09:01;6.90;;;3.10;;
18867;SDS011;9563;49.240;9.088;2022-08-05T05:11:29;6.55;;;3.58;;
18867;SDS011;9563;49.240;9.088;2022-08-05T05:13:58;13.90;;;3.50;;
18867;SDS011;9563;49.240;9.088;2022-08-05T05:16:27;8.90;;;3.40;;
18867;SDS011;9563;49.240;9.088;2022-08-05T05:18:55;10.43;;;2.85;;
18867;SDS011;9563;49.240;9.088;2022-08-05T05:21:26;11.40;;;3.30;;
18867;SDS011;9563;49.240;9.088;2022-08-05T05:23:55;10.75;;;3.20;;
18867;SDS011;9563;49.240;9.088;2022-08-05T05:29:45;3.97;;;2.58;;
18867;SDS011;9563;49.240;9.088;2022-08-05T05:32:13;7.70;;;2.97;;
18867;SDS011;9563;49.240;9.088;2022-08-05T05:34:43;6.95;;;2.85;;
18867;SDS011;9563;49.240;9.088;2022-08-05T05:37:14;6.68;;;2.97;;
18867;SDS011;9563;49.240;9.088;2022-08-05T05:39:42;7.40;;;2.80;;
18867;SDS011;9563;49.240;9.088;2022-08-05T05:42:10;7.30;;;2.70;;
18867;SDS011;9563;49.240;9.088;2022-08-05T05:44:39;6.05;;;2.65;;
18867;SDS011;9563;49.240;9.088;2022-08-05T05:47:07;9.73;;;2.97;;
18867;SDS011;9563;49.240;9.088;2022-08-05T05:49:35;6.07;;;2.58;;
18867;SDS011;9563;49.240;9.088;2022-08-05T05:52:08;5.30;;;2.92;;
18867;SDS011;9563;49.240;9.088;2022-08-05T05:54:45;12.38;;;2.95;;
18867;SDS011;9563;49.240;9.088;2022-08-05T05:57:12;10.43;;;3.13;;
18867;SDS011;9563;49.240;9.088;2022-08-05T05:59:39;8.07;;;3.35;;
18867;SDS011;9563;49.240;9.088;2022-08-05T06:02:06;10.65;;;3.10;;
18867;SDS011;9563;49.240;9.088;2022-08-05T06:04:33;8.65;;;3.28;;
18867;SDS011;9563;49.240;9.088;2022-08-05T06:07:00;6.75;;;2.75;;
18867;SDS011;9563;49.240;9.088;2022-08-05T06:09:27;7.15;;;2.92;;
18867;SDS011;9563;49.240;9.088;2022-08-05T06:11:55;8.48;;;3.33;;
18867;SDS011;9563;49.240;9.088;2022-08-05T06:14:22;7.90;;;3.13;;
18867;SDS011;9563;49.240;9.088;2022-08-05T06:16:49;8.27;;;3.42;;
18867;SDS011;9563;49.240;9.088;2022-08-05T06:19:16;5.88;;;3.10;;
18867;SDS011;9563;49.240;9.088;2022-08-05T06:21:44;6.63;;;2.90;;
18867;SDS011;9563;49.240;9.088;2022-08-05T06:24:11;3.47;;;2.72;;
18867;SDS011;9563;49.240;9.088;2022-08-05T06:26:38;8.13;;;3.08;;
18867;SDS011;9563;49.240;9.088;2022-08-05T06:29:06;5.60;;;2.70;;
18867;SDS011;9563;49.240;9.088;2022-08-05T06:31:33;7.90;;;2.88;;
18867;SDS011;9563;49.240;9.088;2022-08-05T06:34:02;5.35;;;2.65;;
18867;SDS011;9563;49.240;9.088;2022-08-05T06:36:29;4.97;;;2.60;;
18867;SDS011;9563;49.240;9.088;2022-08-05T06:38:56;11.90;;;3.15;;
18867;SDS011;9563;49.240;9.088;2022-08-05T06:41:23;8.52;;;2.80;;
18867;SDS011;9563;49.240;9.088;2022-08-05T06:43:51;10.77;;;2.70;;
18867;SDS011;9563;49.240;9.088;2022-08-05T06:46:19;6.57;;;2.50;;
18867;SDS011;9563;49.240;9.088;2022-08-05T06:48:46;7.70;;;2.42;;
18867;SDS011;9563;49.240;9.088;2022-08-05T06:51:13;4.60;;;2.67;;
18867;SDS011;9563;49.240;9.088;2022-08-05T06:53:40;5.03;;;2.50;;
18867;SDS011;9563;49.240;9.088;2022-08-05T06:56:07;4.25;;;2.33;;
18867;SDS011;9563;49.240;9.088;2022-08-05T06:58:34;12.60;;;3.08;;
18867;SDS011;9563;49.240;9.088;2022-08-05T07:01:01;3.13;;;2.30;;
18867;SDS011;9563;49.240;9.088;2022-08-05T07:03:31;4.60;;;2.45;;
18867;SDS011;9563;49.240;9.088;2022-08-05T07:05:59;3.85;;;2.40;;
18867;SDS011;9563;49.240;9.088;2022-08-05T07:08:28;7.75;;;2.90;;
18867;SDS011;9563;49.240;9.088;2022-08-05T07:10:55;4.70;;;2.40;;
18867;SDS011;9563;49.240;9.088;2022-08-05T07:13:22;6.35;;;2.55;;
18867;SDS011;9563;49.240;9.088;2022-08-05T07:16:07;6.80;;;2.50;;
18867;SDS011;9563;49.240;9.088;2022-08-05T07:18:53;5.22;;;2.45;;
18867;SDS011;9563;49.240;9.088;2022-08-05T07:21:20;9.10;;;2.72;;
18867;SDS011;9563;49.240;9.088;2022-08-05T07:23:47;8.00;;;2.97;;
18867;SDS011;9563;49.240;9.088;2022-08-05T07:26:14;7.43;;;2.45;;
18867;SDS011;9563;49.240;9.088;2022-08-05T07:28:41;9.07;;;2.90;;
18867;SDS011;9563;49.240;9.088;2022-08-05T07:31:08;6.15;;;3.00;;
18867;SDS011;9563;49.240;9.088;2022-08-05T07:33:35;4.45;;;2.42;;
18867;SDS011;9563;49.240;9.088;2022-08-05T07:36:03;13.07;;;2.85;;
18867;SDS011;9563;49.240;9.088;2022-08-05T07:38:31;7.15;;;3.05;;
18867;SDS011;9563;49.240;9.088;2022-08-05T07:40:58;5.85;;;2.47;;
18867;SDS011;9563;49.240;9.088;2022-08-05T07:43:26;3.78;;;2.20;;
18867;SDS011;9563;49.240;9.088;2022-08-05T07:45:53;4.55;;;2.50;;
18867;SDS011;9563;49.240;9.088;2022-08-05T07:48:20;2.92;;;2.08;;
18867;SDS011;9563;49.240;9.088;2022-08-05T07:50:47;4.43;;;2.17;;
18867;SDS011;9563;49.240;9.088;2022-08-05T07:53:15;3.47;;;2.05;;
18867;SDS011;9563;49.240;9.088;2022-08-05T07:55:42;3.67;;;2.20;;
18867;SDS011;9563;49.240;9.088;2022-08-05T07:58:10;3.88;;;2.42;;
18867;SDS011;9563;49.240;9.088;2022-08-05T08:00:36;3.58;;;2.35;;
18867;SDS011;9563;49.240;9.088;2022-08-05T08:03:08;7.30;;;2.10;;
18867;SDS011;9563;49.240;9.088;2022-08-05T08:05:35;6.25;;;2.00;;
18867;SDS011;9563;49.240;9.088;2022-08-05T08:08:03;2.92;;;2.20;;
18867;SDS011;9563;49.240;9.088;2022-08-05T08:10:32;2.45;;;2.17;;
18867;SDS011;9563;49.240;9.088;2022-08-05T08:12:59;3.10;;;2.10;;
18867;SDS011;9563;49.240;9.088;2022-08-05T08:15:26;5.75;;;1.73;;
18867;SDS011;9563;49.240;9.088;2022-08-05T08:17:53;3.17;;;1.83;;
18867;SDS011;9563;49.240;9.088;2022-08-05T08:20:20;2.45;;;1.92;;
18867;SDS011;9563;49.240;9.088;2022-08-05T08:22:50;5.78;;;2.05;;
18867;SDS011;9563;49.240;9.088;2022-08-05T08:25:18;2.70;;;1.73;;
18867;SDS011;9563;49.240;9.088;2022-08-05T08:27:47;2.30;;;1.73;;
18867;SDS011;9563;49.240;9.088;2022-08-05T08:33:41;3.80;;;2.15;;
18867;SDS011;9563;49.240;9.088;2022-08-05T08:36:08;3.92;;;2.03;;
18867;SDS011;9563;49.240;9.088;2022-08-05T08:38:36;3.30;;;1.70;;
18867;SDS011;9563;49.240;9.088;2022-08-05T08:41:03;2.15;;;1.40;;
18867;SDS011;9563;49.240;9.088;2022-08-05T08:43:34;4.38;;;1.63;;
18867;SDS011;9563;49.240;9.088;2022-08-05T08:46:02;6.28;;;1.83;;
18867;SDS011;9563;49.240;9.088;2022-08-05T08:51:16;2.03;;;1.73;;
18867;SDS011;9563;49.240;9.088;2022-08-05T08:53:44;3.70;;;1.98;;
18867;SDS011;9563;49.240;9.088;2022-08-05T08:56:11;4.18;;;1.90;;
18867;SDS011;9563;49.240;9.088;2022-08-05T08:58:41;2.97;;;1.70;;
18867;SDS011;9563;49.240;9.088;2022-08-05T09:01:08;4.15;;;2.10;;
18867;SDS011;9563;49.240;9.088;2022-08-05T09:03:36;2.10;;;1.70;;
18867;SDS011;9563;49.240;9.088;2022-08-05T09:06:04;2.38;;;1.80;;
18867;SDS011;9563;49.240;9.088;2022-08-05T09:08:31;1.83;;;1.50;;
18867;SDS011;9563;49.240;9.088;2022-08-05T09:10:58;2.42;;;1.73;;
18867;SDS011;9563;49.240;9.088;2022-08-05T09:13:25;3.13;;;1.88;;
18867;SDS011;9563;49.240;9.088;2022-08-05T09:15:56;4.18;;;1.70;;
18867;SDS011;9563;49.240;9.088;2022-08-05T09:18:23;3.45;;;1.83;;
18867;SDS011;9563;49.240;9.088;2022-08-05T09:20:50;2.20;;;1.50;;
18867;SDS011;9563;49.240;9.088;2022-08-05T09:23:17;2.47;;;1.80;;
18867;SDS011;9563;49.240;9.088;2022-08-05T09:25:46;2.72;;;1.50;;
18867;SDS011;9563;49.240;9.088;2022-08-05T09:28:14;5.88;;;1.83;;
18867;SDS011;9563;49.240;9.088;2022-08-05T09:30:43;2.60;;;1.30;;
18867;SDS011;9563;49.240;9.088;2022-08-05T09:33:12;5.00;;;1.70;;
18867;SDS011;9563;49.240;9.088;2022-08-05T09:35:51;5.18;;;2.00;;
18867;SDS011;9563;49.240;9.088;2022-08-05T09:38:19;2.03;;;1.70;;
18867;SDS011;9563;49.240;9.088;2022-08-05T09:40:46;4.30;;;2.00;;
18867;SDS011;9563;49.240;9.088;2022-08-05T09:43:24;4.72;;;1.90;;
18867;SDS011;9563;49.240;9.088;2022-08-05T09:45:55;1.90;;;1.67;;
18867;SDS011;9563;49.240;9.088;2022-08-05T09:48:24;5.82;;;1.60;;
18867;SDS011;9563;49.240;9.088;2022-08-05T09:50:53;2.75;;;1.60;;
18867;SDS011;9563;49.240;9.088;2022-08-05T09:53:21;3.58;;;1.80;;
18867;SDS011;9563;49.240;9.088;2022-08-05T09:55:55;5.82;;;1.60;;
18867;SDS011;9563;49.240;9.088;2022-08-05T09:58:23;3.10;;;1.48;;
18867;SDS011;9563;49.240;9.088;2022-08-05T10:00:53;3.53;;;1.80;;
18867;SDS011;9563;49.240;9.088;2022-08-05T10:03:21;3.28;;;1.80;;
18867;SDS011;9563;49.240;9.088;2022-08-05T10:06:03;6.13;;;1.52;;
18867;SDS011;9563;49.240;9.088;2022-08-05T10:08:32;4.55;;;1.80;;
18867;SDS011;9563;49.240;9.088;2022-08-05T10:10:59;5.05;;;1.38;;
18867;SDS011;9563;49.240;9.088;2022-08-05T10:13:30;2.97;;;1.40;;
18867;SDS011;9563;49.240;9.088;2022-08-05T10:16:01;2.83;;;1.67;;
18867;SDS011;9563;49.240;9.088;2022-08-05T10:18:30;8.32;;;1.60;;
18867;SDS011;9563;49.240;9.088;2022-08-05T10:20:59;5.80;;;1.90;;
18867;SDS011;9563;49.240;9.088;2022-08-05T10:23:28;4.07;;;1.58;;
18867;SDS011;9563;49.240;9.088;2022-08-05T10:25:58;3.15;;;1.50;;
18867;SDS011;9563;49.240;9.088;2022-08-05T10:28:26;1.90;;;1.70;;
18867;SDS011;9563;49.240;9.088;2022-08-05T10:30:54;1.77;;;1.60;;
18867;SDS011;9563;49.240;9.088;2022-08-05T10:33:22;3.28;;;1.60;;
18867;SDS011;9563;49.240;9.088;2022-08-05T10:35:52;3.00;;;1.60;;
18867;SDS011;9563;49.240;9.088;2022-08-05T10:38:20;5.82;;;2.17;;
18867;SDS011;9563;49.240;9.088;2022-08-05T10:40:51;1.60;;;1.40;;
18867;SDS011;9563;49.240;9.088;2022-08-05T10:43:28;5.88;;;1.70;;
18867;SDS011;9563;49.240;9.088;2022-08-05T10:46:02;1.95;;;1.45;;
18867;SDS011;9563;49.240;9.088;2022-08-05T10:48:32;2.75;;;1.42;;
18867;SDS011;9563;49.240;9.088;2022-08-05T10:51:03;2.85;;;1.38;;
18867;SDS011;9563;49.240;9.088;2022-08-05T10:53:37;1.73;;;1.42;;
18867;SDS011;9563;49.240;9.088;2022-08-05T10:56:06;3.90;;;1.42;;
18867;SDS011;9563;49.240;9.088;2022-08-05T10:58:35;1.95;;;1.40;;
18867;SDS011;9563;49.240;9.088;2022-08-05T11:01:12;2.13;;;1.23;;
18867;SDS011;9563;49.240;9.088;2022-08-05T11:06:30;1.60;;;1.33;;
18867;SDS011;9563;49.240;9.088;2022-08-05T11:09:11;2.30;;;1.00;;
18867;SDS011;9563;49.240;9.088;2022-08-05T11:11:52;1.23;;;1.10;;
18867;SDS011;9563;49.240;9.088;2022-08-05T11:14:29;2.72;;;1.30;;
18867;SDS011;9563;49.240;9.088;2022-08-05T11:17:24;3.10;;;1.08;;
18867;SDS011;9563;49.240;9.088;2022-08-05T11:19:54;2.00;;;1.30;;
18867;SDS011;9563;49.240;9.088;2022-08-05T11:22:41;3.05;;;1.30;;
18867;SDS011;9563;49.240;9.088;2022-08-05T11:25:27;2.90;;;1.20;;
18867;SDS011;9563;49.240;9.088;2022-08-05T11:33:51;1.60;;;1.35;;
18867;SDS011;9563;49.240;9.088;2022-08-05T11:36:20;2.85;;;1.50;;
18867;SDS011;9563;49.240;9.088;2022-08-05T11:39:04;5.00;;;1.60;;
18867;SDS011;9563;49.240;9.088;2022-08-05T11:41:32;1.88;;;1.55;;
18867;SDS011;9563;49.240;9.088;2022-08-05T11:44:01;2.08;;;1.60;;
18867;SDS011;9563;49.240;9.088;2022-08-05T11:46:30;2.50;;;1.50;;
18867;SDS011;9563;49.240;9.088;2022-08-05T11:48:59;3.28;;;1.63;;
18867;SDS011;9563;49.240;9.088;2022-08-05T11:51:27;2.55;;;1.60;;
18867;SDS011;9563;49.240;9.088;2022-08-05T11:53:55;5.68;;;1.90;;
18867;SDS011;9563;49.240;9.088;2022-08-05T11:56:24;1.80;;;1.50;;
18867;SDS011;9563;49.240;9.088;2022-08-05T11:58:51;4.53;;;1.83;;
18867;SDS011;9563;49.240;9.088;2022-08-05T12:01:19;2.10;;;1.60;;
18867;SDS011;9563;49.240;9.088;2022-08-05T12:03:47;2.22;;;1.80;;
18867;SDS011;9563;49.240;9.088;2022-08-05T12:06:17;3.13;;;1.90;;
18867;SDS011;9563;49.240;9.088;2022-08-05T12:08:45;5.30;;;1.90;;
18867;SDS011;9563;49.240;9.088;2022-08-05T12:11:15;6.22;;;1.90;;
18867;SDS011;9563;49.240;9.088;2022-08-05T12:13:56;2.83;;;1.40;;
18867;SDS011;9563;49.240;9.088;2022-08-05T12:16:24;3.75;;;1.40;;
18867;SDS011;9563;49.240;9.088;2022-08-05T12:18:52;3.17;;;1.15;;
18867;SDS011;9563;49.240;9.088;2022-08-05T12:21:20;4.10;;;1.40;;
18867;SDS011;9563;49.240;9.088;2022-08-05T12:23:53;1.48;;;1.25;;
18867;SDS011;9563;49.240;9.088;2022-08-05T12:26:23;1.38;;;1.27;;
18867;SDS011;9563;49.240;9.088;2022-08-05T12:28:56;2.70;;;1.40;;
18867;SDS011;9563;49.240;9.088;2022-08-05T12:31:24;2.25;;;1.30;;
18867;SDS011;9563;49.240;9.088;2022-08-05T12:33:53;3.92;;;1.60;;
18867;SDS011;9563;49.240;9.088;2022-08-05T12:36:35;6.93;;;1.70;;
18867;SDS011;9563;49.240;9.088;2022-08-05T12:39:04;4.60;;;1.73;;
18867;SDS011;9563;49.240;9.088;2022-08-05T12:41:32;3.05;;;1.20;;
18867;SDS011;9563;49.240;9.088;2022-08-05T12:44:03;2.67;;;1.38;;
18867;SDS011;9563;49.240;9.088;2022-08-05T12:46:32;2.70;;;1.52;;
18867;SDS011;9563;49.240;9.088;2022-08-05T12:49:01;1.50;;;1.40;;
18867;SDS011;9563;49.240;9.088;2022-08-05T12:51:41;2.72;;;1.55;;
18867;SDS011;9563;49.240;9.088;2022-08-05T12:54:09;1.70;;;1.25;;
18867;SDS011;9563;49.240;9.088;2022-08-05T12:56:40;1.92;;;1.13;;
18867;SDS011;9563;49.240;9.088;2022-08-05T12:59:13;1.70;;;1.60;;
18867;SDS011;9563;49.240;9.088;2022-08-05T13:01:41;2.03;;;1.52;;
18867;SDS011;9563;49.240;9.088;2022-08-05T13:04:10;3.95;;;1.80;;
18867;SDS011;9563;49.240;9.088;2022-08-05T13:06:38;4.63;;;2.00;;
18867;SDS011;9563;49.240;9.088;2022-08-05T13:09:06;2.47;;;1.70;;
18867;SDS011;9563;49.240;9.088;2022-08-05T13:11:36;4.50;;;1.80;;
18867;SDS011;9563;49.240;9.088;2022-08-05T13:14:18;5.03;;;1.83;;
18867;SDS011;9563;49.240;9.088;2022-08-05T13:16:47;2.53;;;1.70;;
18867;SDS011;9563;49.240;9.088;2022-08-05T13:19:22;7.82;;;2.28;;
18867;SDS011;9563;49.240;9.088;2022-08-05T13:21:51;3.78;;;1.60;;
18867;SDS011;9563;49.240;9.088;2022-08-05T13:24:19;6.43;;;2.20;;
18867;SDS011;9563;49.240;9.088;2022-08-05T13:26:47;2.33;;;1.98;;
18867;SDS011;9563;49.240;9.088;2022-08-05T13:32:18;6.22;;;1.92;;
18867;SDS011;9563;49.240;9.088;2022-08-05T13:38:09;5.45;;;2.65;;
18867;SDS011;9563;49.240;9.088;2022-08-05T13:43:58;3.30;;;2.22;;
18867;SDS011;9563;49.240;9.088;2022-08-05T13:46:29;3.90;;;2.40;;
18867;SDS011;9563;49.240;9.088;2022-08-05T13:48:57;4.93;;;2.53;;
18867;SDS011;9563;49.240;9.088;2022-08-05T13:51:27;6.70;;;2.38;;
18867;SDS011;9563;49.240;9.088;2022-08-05T13:53:55;5.18;;;2.47;;
18867;SDS011;9563;49.240;9.088;2022-08-05T13:56:23;20.05;;;3.95;;
18867;SDS011;9563;49.240;9.088;2022-08-05T13:58:50;22.88;;;4.50;;
18867;SDS011;9563;49.240;9.088;2022-08-05T14:01:17;4.95;;;2.30;;
18867;SDS011;9563;49.240;9.088;2022-08-05T14:03:45;6.50;;;2.50;;
18867;SDS011;9563;49.240;9.088;2022-08-05T14:06:34;9.02;;;2.35;;
18867;SDS011;9563;49.240;9.088;2022-08-05T14:09:00;10.07;;;2.97;;
18867;SDS011;9563;49.240;9.088;2022-08-05T14:11:27;8.30;;;2.80;;
18867;SDS011;9563;49.240;9.088;2022-08-05T14:13:54;4.70;;;2.42;;
18867;SDS011;9563;49.240;9.088;2022-08-05T14:16:21;4.60;;;2.30;;
18867;SDS011;9563;49.240;9.088;2022-08-05T14:22:06;3.47;;;2.53;;
18867;SDS011;9563;49.240;9.088;2022-08-05T14:24:33;3.55;;;2.30;;
18867;SDS011;9563;49.240;9.088;2022-08-05T14:27:01;3.92;;;2.50;;
18867;SDS011;9563;49.240;9.088;2022-08-05T14:36:18;4.43;;;2.67;;
18867;SDS011;9563;49.240;9.088;2022-08-05T14:38:47;3.22;;;2.63;;
18867;SDS011;9563;49.240;9.088;2022-08-05T14:41:14;4.65;;;2.63;;
18867;SDS011;9563;49.240;9.088;2022-08-05T14:43:41;3.15;;;2.47;;
18867;SDS011;9563;49.240;9.088;2022-08-05T14:46:07;2.85;;;2.58;;
18867;SDS011;9563;49.240;9.088;2022-08-05T14:48:35;4.85;;;2.35;;
18867;SDS011;9563;49.240;9.088;2022-08-05T14:51:02;4.28;;;2.95;;
18867;SDS011;9563;49.240;9.088;2022-08-05T14:53:29;5.63;;;2.40;;
18867;SDS011;9563;49.240;9.088;2022-08-05T14:55:57;4.00;;;2.20;;
18867;SDS011;9563;49.240;9.088;2022-08-05T14:58:24;4.75;;;2.47;;
18867;SDS011;9563;49.240;9.088;2022-08-05T15:00:52;6.72;;;2.45;;
18867;SDS011;9563;49.240;9.088;2022-08-05T15:03:28;3.55;;;2.65;;
18867;SDS011;9563;49.240;9.088;2022-08-05T15:06:19;5.43;;;2.55;;
18867;SDS011;9563;49.240;9.088;2022-08-05T15:08:47;5.68;;;2.25;;
18867;SDS011;9563;49.240;9.088;2022-08-05T15:11:16;2.83;;;2.45;;
18867;SDS011;9563;49.240;9.088;2022-08-05T15:13:43;4.20;;;2.40;;
18867;SDS011;9563;49.240;9.088;2022-08-05T15:16:10;3.03;;;2.50;;
18867;SDS011;9563;49.240;9.088;2022-08-05T15:18:37;4.90;;;2.22;;
18867;SDS011;9563;49.240;9.088;2022-08-05T15:21:04;5.18;;;2.38;;
18867;SDS011;9563;49.240;9.088;2022-08-05T15:23:32;6.88;;;2.22;;
18867;SDS011;9563;49.240;9.088;2022-08-05T15:25:59;4.38;;;2.15;;
18867;SDS011;9563;49.240;9.088;2022-08-05T15:28:28;8.05;;;2.38;;
18867;SDS011;9563;49.240;9.088;2022-08-05T15:30:55;3.75;;;2.05;;
18867;SDS011;9563;49.240;9.088;2022-08-05T15:33:22;7.03;;;2.00;;
18867;SDS011;9563;49.240;9.088;2022-08-05T15:35:49;4.15;;;2.10;;
18867;SDS011;9563;49.240;9.088;2022-08-05T15:38:16;3.53;;;2.30;;
18867;SDS011;9563;49.240;9.088;2022-08-05T15:40:43;3.20;;;2.10;;
18867;SDS011;9563;49.240;9.088;2022-08-05T15:43:10;3.08;;;2.20;;
18867;SDS011;9563;49.240;9.088;2022-08-05T15:45:38;5.47;;;1.98;;
18867;SDS011;9563;49.240;9.088;2022-08-05T15:48:09;4.32;;;2.22;;
18867;SDS011;9563;49.240;9.088;2022-08-05T15:50:36;4.38;;;2.30;;
18867;SDS011;9563;49.240;9.088;2022-08-05T15:53:03;2.60;;;1.90;;
18867;SDS011;9563;49.240;9.088;2022-08-05T15:55:30;6.80;;;2.10;;
18867;SDS011;9563;49.240;9.088;2022-08-05T15:57:57;3.45;;;2.30;;
18867;SDS011;9563;49.240;9.088;2022-08-05T16:00:24;3.97;;;2.28;;
18867;SDS011;9563;49.240;9.088;2022-08-05T16:02:52;4.50;;;2.10;;
18867;SDS011;9563;49.240;9.088;2022-08-05T16:05:19;6.43;;;2.47;;
18867;SDS011;9563;49.240;9.088;2022-08-05T16:07:47;3.45;;;2.30;;
18867;SDS011;9563;49.240;9.088;2022-08-05T16:10:13;4.28;;;2.03;;
18867;SDS011;9563;49.240;9.088;2022-08-05T16:12:40;3.67;;;2.38;;
18867;SDS011;9563;49.240;9.088;2022-08-05T16:15:08;3.90;;;2.72;;
18867;SDS011;9563;49.240;9.088;2022-08-05T16:17:36;4.18;;;2.47;;
18867;SDS011;9563;49.240;9.088;2022-08-05T16:20:06;3.22;;;2.22;;
18867;SDS011;9563;49.240;9.088;2022-08-05T16:22:34;4.10;;;2.20;;
18867;SDS011;9563;49.240;9.088;2022-08-05T16:25:01;3.70;;;2.35;;